Time;durP1;ratioP1;P1;durP2;ratioP2;P2;SDS_P1;SDS_P2;PMS_P1;PMS_P2;Temp;Humidity;BMP_temperature;BMP_pressure;BME280_temperature;BME280_humidity;BME280_pressure;Samples;Min_cycle;Max_cycle;Signal;HPM_P1;HPM_P2
2022/07/12 00:00:19;;;;;;;45.30;5.32;;;17.00;99.90;;;;;;6187624;28;20270;-67
2022/07/12 00:03:27;;;;;;;44.78;4.43;;;17.00;99.90;;;;;;6187688;28;20278;-67
2022/07/12 00:06:33;;;;;;;35.97;3.90;;;17.00;99.90;;;;;;6165312;28;20400;-67
2022/07/12 00:09:38;;;;;;;31.17;3.17;;;17.00;99.90;;;;;;6163763;28;20290;-67
2022/07/12 00:12:43;;;;;;;14.90;2.90;;;17.00;99.90;;;;;;6164069;28;20307;-67
2022/07/12 00:15:49;;;;;;;19.15;3.15;;;17.00;99.90;;;;;;6163988;29;20298;-67
2022/07/12 00:18:55;;;;;;;27.33;3.50;;;16.90;99.90;;;;;;6163477;29;20275;-67
2022/07/12 00:22:00;;;;;;;10.63;2.90;;;16.90;99.90;;;;;;6163865;29;20287;-67
2022/07/12 00:25:07;;;;;;;21.00;3.53;;;16.90;99.90;;;;;;6163805;29;20274;-67
2022/07/12 00:28:13;;;;;;;13.88;2.58;;;16.90;99.90;;;;;;6163763;29;20270;-67
2022/07/12 00:31:20;;;;;;;13.05;2.78;;;16.90;99.90;;;;;;6163788;29;20562;-67
2022/07/12 00:34:26;;;;;;;12.32;2.72;;;16.90;99.90;;;;;;6163725;29;20274;-67
2022/07/12 00:37:31;;;;;;;3.78;2.50;;;16.90;99.90;;;;;;6166139;28;20485;-67
2022/07/12 00:40:37;;;;;;;6.43;2.45;;;16.80;99.90;;;;;;6167612;28;20469;-67
2022/07/12 00:43:42;;;;;;;10.57;2.70;;;16.90;99.90;;;;;;6167889;29;20278;-67
2022/07/12 00:46:48;;;;;;;10.00;2.75;;;16.80;99.90;;;;;;6167559;28;20282;-67
2022/07/12 00:49:54;;;;;;;10.40;2.70;;;16.80;99.90;;;;;;6167709;29;20279;-67
2022/07/12 00:53:00;;;;;;;8.52;2.20;;;16.80;99.90;;;;;;6167690;29;20274;-67
2022/07/12 00:56:05;;;;;;;10.98;2.30;;;16.70;99.90;;;;;;6167446;29;20294;-67
2022/07/12 00:59:11;;;;;;;2.22;1.70;;;16.70;99.90;;;;;;6167311;28;20274;-67
2022/07/12 01:02:16;;;;;;;5.22;2.08;;;16.70;99.90;;;;;;6167707;29;20578;-67
2022/07/12 01:05:24;;;;;;;6.43;2.05;;;16.70;99.90;;;;;;6167024;29;20266;-67
2022/07/12 01:08:29;;;;;;;3.95;2.08;;;16.70;99.90;;;;;;6166661;29;20447;-67
2022/07/12 01:11:36;;;;;;;3.30;2.10;;;16.60;99.90;;;;;;6168870;28;20270;-67
2022/07/12 01:14:42;;;;;;;1.90;1.90;;;16.60;99.90;;;;;;6190975;28;20560;-67
2022/07/12 01:17:48;;;;;;;2.40;2.20;;;16.60;99.90;;;;;;6190629;28;20298;-67
2022/07/12 01:20:58;;;;;;;16.90;2.00;;;16.70;99.90;;;;;;6190485;28;20278;-67
2022/07/12 01:24:07;;;;;;;4.10;1.92;;;16.60;99.90;;;;;;6190580;28;20278;-67
2022/07/12 01:27:13;;;;;;;4.82;1.77;;;16.50;99.90;;;;;;6190777;28;20282;-67
2022/07/12 01:30:18;;;;;;;2.22;2.03;;;16.50;99.90;;;;;;6190067;28;20465;-67
2022/07/12 01:33:24;;;;;;;3.88;1.75;;;16.50;99.90;;;;;;6190598;28;20269;-67
2022/07/12 01:36:30;;;;;;;2.50;1.70;;;16.50;99.90;;;;;;6190328;28;20290;-67
2022/07/12 01:39:37;;;;;;;1.77;1.65;;;16.50;99.90;;;;;;6190438;28;20463;-67
2022/07/12 01:42:44;;;;;;;3.50;1.98;;;16.50;99.90;;;;;;6190155;28;20277;-67
2022/07/12 01:45:49;;;;;;;1.80;1.80;;;16.40;99.90;;;;;;6190325;28;20273;-67
2022/07/12 01:48:55;;;;;;;2.03;1.75;;;16.40;99.90;;;;;;6188862;28;20277;-67
2022/07/12 01:52:00;;;;;;;4.88;1.90;;;16.40;99.90;;;;;;6190038;28;20277;-67
2022/07/12 01:55:08;;;;;;;2.78;2.10;;;16.20;99.90;;;;;;6190028;28;20277;-67
2022/07/12 01:58:14;;;;;;;1.85;1.63;;;16.20;99.90;;;;;;6189968;28;20295;-67
2022/07/12 02:01:20;;;;;;;5.10;2.20;;;16.10;99.90;;;;;;6189545;28;20285;-67
2022/07/12 02:04:25;;;;;;;4.68;2.00;;;16.10;99.90;;;;;;6184331;28;20443;-67
2022/07/12 02:07:31;;;;;;;1.92;1.60;;;16.10;99.90;;;;;;6165680;28;20283;-67
2022/07/12 02:10:37;;;;;;;1.67;1.63;;;16.00;99.90;;;;;;6165693;28;20294;-67
2022/07/12 02:13:43;;;;;;;1.50;1.50;;;16.00;99.90;;;;;;6166063;28;20306;-67
2022/07/12 02:16:48;;;;;;;1.10;1.10;;;16.10;99.90;;;;;;6165845;28;20298;-67
2022/07/12 02:19:54;;;;;;;1.17;1.17;;;16.10;99.90;;;;;;6165899;28;20274;-67
2022/07/12 02:22:59;;;;;;;1.30;1.30;;;16.20;99.90;;;;;;6165848;28;20283;-67
2022/07/12 02:26:06;;;;;;;1.23;1.23;;;16.20;99.90;;;;;;6165235;29;20324;-67
2022/07/12 02:29:12;;;;;;;1.30;1.20;;;16.20;99.90;;;;;;6165146;29;20274;-67
2022/07/12 02:32:18;;;;;;;1.17;1.10;;;16.20;99.90;;;;;;6165419;29;20274;-67
2022/07/12 02:35:24;;;;;;;3.45;1.40;;;16.10;99.90;;;;;;6165139;28;20586;-67
2022/07/12 02:38:30;;;;;;;2.13;1.35;;;16.10;99.90;;;;;;6164859;29;20315;-67
2022/07/12 02:41:36;;;;;;;1.30;1.30;;;16.20;99.90;;;;;;6164883;29;20279;-67
2022/07/12 02:44:41;;;;;;;1.10;1.10;;;16.10;99.90;;;;;;6165293;28;20557;-67
2022/07/12 02:47:47;;;;;;;1.83;1.15;;;16.10;99.90;;;;;;6165197;28;20380;-67
2022/07/12 02:50:52;;;;;;;1.13;1.10;;;16.10;99.90;;;;;;6164703;29;20278;-67
2022/07/12 02:53:59;;;;;;;1.35;1.30;;;16.10;99.90;;;;;;6165015;29;20279;-67
2022/07/12 02:57:06;;;;;;;1.00;1.00;;;16.10;99.90;;;;;;6164864;29;20485;-67
2022/07/12 03:00:13;;;;;;;1.35;1.30;;;16.00;99.90;;;;;;6164466;28;20278;-67
2022/07/12 03:03:19;;;;;;;1.30;1.30;;;16.10;99.90;;;;;;6164391;29;20363;-67
2022/07/12 03:06:24;;;;;;;1.10;1.00;;;16.10;99.90;;;;;;6164410;29;20266;-67
2022/07/12 03:09:30;;;;;;;0.98;0.98;;;16.10;99.90;;;;;;6164251;29;20282;-67
2022/07/12 03:12:37;;;;;;;1.08;1.08;;;16.00;99.90;;;;;;6174019;28;20442;-67
2022/07/12 03:15:42;;;;;;;1.13;1.13;;;16.00;99.90;;;;;;6188414;28;20278;-67
2022/07/12 03:18:47;;;;;;;1.00;1.00;;;16.00;99.90;;;;;;6187978;28;20481;-67
2022/07/12 03:21:52;;;;;;;0.90;0.90;;;16.00;99.90;;;;;;6188078;28;20455;-67
2022/07/12 03:24:57;;;;;;;0.85;0.80;;;16.10;99.90;;;;;;6188382;28;20277;-67
2022/07/12 03:28:04;;;;;;;0.80;0.80;;;16.10;99.90;;;;;;6187761;28;20277;-67
2022/07/12 03:31:10;;;;;;;1.73;1.63;;;16.20;99.90;;;;;;6188285;28;20545;-66
2022/07/12 03:34:16;;;;;;;0.90;0.90;;;16.20;99.90;;;;;;6187826;28;20273;-66
2022/07/12 03:37:21;;;;;;;1.15;1.00;;;16.30;99.90;;;;;;6187758;28;20339;-66
2022/07/12 03:40:26;;;;;;;1.15;1.15;;;16.30;99.90;;;;;;6187669;28;20294;-66
2022/07/12 03:43:32;;;;;;;0.88;0.88;;;16.30;99.90;;;;;;6188166;28;20273;-66
2022/07/12 03:46:37;;;;;;;1.00;1.00;;;16.40;99.90;;;;;;6187556;28;20277;-66
2022/07/12 03:49:43;;;;;;;1.00;1.00;;;16.40;99.90;;;;;;6187657;28;20277;-66
2022/07/12 03:52:49;;;;;;;0.90;0.90;;;16.40;99.90;;;;;;6188026;28;20273;-66
2022/07/12 03:55:54;;;;;;;1.00;1.00;;;16.50;99.90;;;;;;6187480;28;20278;-66
2022/07/12 03:59:01;;;;;;;2.72;1.10;;;16.50;99.90;;;;;;6187794;28;20293;-66
2022/07/12 04:02:06;;;;;;;1.00;1.00;;;16.50;99.90;;;;;;6187613;28;20273;-66
2022/07/12 04:05:13;;;;;;;1.10;1.10;;;16.60;99.90;;;;;;6175828;28;20275;-66
2022/07/12 04:08:19;;;;;;;1.00;1.00;;;16.50;99.90;;;;;;6163800;28;20278;-66
2022/07/12 04:11:24;;;;;;;3.30;1.00;;;16.60;99.90;;;;;;6164993;28;20274;-67
2022/07/12 04:14:31;;;;;;;1.10;0.90;;;16.60;99.90;;;;;;6168712;29;20298;-66
2022/07/12 04:17:36;;;;;;;3.60;0.90;;;16.60;99.90;;;;;;6168442;29;20294;-66
2022/07/12 04:20:41;;;;;;;1.02;0.90;;;16.60;99.90;;;;;;6168276;29;20315;-66
2022/07/12 04:23:47;;;;;;;0.90;0.90;;;16.70;99.90;;;;;;6168293;29;20274;-66
2022/07/12 04:26:52;;;;;;;1.00;1.00;;;16.70;99.90;;;;;;6168180;29;20363;-66
2022/07/12 04:29:58;;;;;;;1.00;1.00;;;16.80;99.90;;;;;;6167668;29;20581;-66
2022/07/12 04:33:07;;;;;;;0.93;0.93;;;16.90;99.90;;;;;;6167698;29;20310;-66
2022/07/12 04:36:13;;;;;;;1.90;1.00;;;16.90;99.90;;;;;;6167935;29;20275;-66
2022/07/12 04:39:19;;;;;;;2.22;0.90;;;16.90;99.90;;;;;;6167463;29;20383;-66
2022/07/12 04:42:24;;;;;;;1.10;0.80;;;16.90;99.90;;;;;;6167868;29;20274;-66
2022/07/12 04:45:31;;;;;;;1.95;1.02;;;16.90;99.90;;;;;;6167271;28;20286;-66
2022/07/12 04:48:36;;;;;;;1.95;0.90;;;17.00;99.90;;;;;;6167944;28;20283;-66
2022/07/12 04:51:42;;;;;;;1.38;1.38;;;17.10;99.90;;;;;;6167611;29;20274;-66
2022/07/12 04:54:48;;;;;;;2.13;1.00;;;17.10;99.90;;;;;;6167743;28;20294;-66
2022/07/12 04:57:53;;;;;;;2.75;1.42;;;17.20;99.90;;;;;;6167487;29;20553;-66
2022/07/12 05:01:00;;;;;;;1.05;1.05;;;17.20;99.90;;;;;;6167594;28;20480;-66
2022/07/12 05:04:05;;;;;;;1.20;1.10;;;17.20;99.90;;;;;;6166889;29;20267;-66
2022/07/12 05:07:11;;;;;;;1.10;1.10;;;17.30;99.90;;;;;;6166701;28;20279;-66
2022/07/12 05:10:16;;;;;;;3.53;1.00;;;17.30;99.90;;;;;;6167075;28;20278;-66
2022/07/12 05:13:22;;;;;;;1.20;1.20;;;17.40;99.90;;;;;;6180397;28;20493;-67
2022/07/12 05:16:29;;;;;;;1.42;1.20;;;17.40;99.90;;;;;;6190790;28;20273;-66
2022/07/12 05:19:34;;;;;;;1.75;1.20;;;17.50;99.90;;;;;;6190763;28;20293;-66
2022/07/12 05:22:41;;;;;;;2.70;1.30;;;17.60;99.90;;;;;;6190297;28;20279;-66
2022/07/12 05:25:46;;;;;;;2.75;1.52;;;17.60;99.90;;;;;;6190463;28;20448;-66
2022/07/12 05:28:52;;;;;;;2.15;1.50;;;17.70;99.90;;;;;;6190525;28;20274;-66
2022/07/12 05:32:01;;;;;;;1.65;1.50;;;17.90;99.90;;;;;;6189950;28;20269;-66
2022/07/12 05:35:14;;;;;;;1.10;1.10;;;18.00;99.90;;;;;;6190416;28;20278;-66
2022/07/12 05:38:20;;;;;;;1.50;1.40;;;18.30;99.90;;;;;;6189969;28;20462;-66
2022/07/12 05:41:25;;;;;;;3.13;1.40;;;18.60;99.90;;;;;;6190354;28;20293;-67
2022/07/12 05:44:30;;;;;;;1.55;1.38;;;18.80;99.90;;;;;;6190192;28;20453;-67
2022/07/12 05:47:38;;;;;;;3.75;1.40;;;19.00;99.90;;;;;;6189941;28;20464;-67
2022/07/12 05:50:43;;;;;;;1.77;1.38;;;19.20;99.90;;;;;;6190093;28;20300;-67
2022/07/12 05:53:47;;;;;;;1.77;1.30;;;19.40;99.90;;;;;;6189613;28;20284;-67
2022/07/12 05:56:52;;;;;;;4.30;1.23;;;19.50;99.90;;;;;;6189855;28;20269;-67
2022/07/12 05:59:58;;;;;;;1.58;1.02;;;19.60;99.90;;;;;;6189914;28;20293;-67
2022/07/12 06:03:04;;;;;;;1.60;1.50;;;19.70;99.50;;;;;;6189785;28;20273;-67
2022/07/12 06:06:11;;;;;;;1.10;1.10;;;19.90;99.50;;;;;;6170478;28;20266;-67
2022/07/12 06:09:16;;;;;;;1.30;1.30;;;20.00;98.40;;;;;;6165659;28;20286;-67
2022/07/12 06:12:21;;;;;;;1.20;1.20;;;20.10;98.10;;;;;;6165366;29;20307;-67
2022/07/12 06:15:26;;;;;;;2.40;1.20;;;20.20;98.60;;;;;;6164825;28;20279;-67
2022/07/12 06:18:40;;;;;;;1.65;1.42;;;20.30;97.80;;;;;;6165794;29;20274;-67
2022/07/12 06:21:46;;;;;;;1.90;1.30;;;20.40;98.90;;;;;;6165397;29;20298;-67
2022/07/12 06:24:51;;;;;;;1.55;1.50;;;20.40;98.00;;;;;;6165274;29;20274;-67
2022/07/12 06:27:56;;;;;;;5.80;1.70;;;20.60;98.20;;;;;;6165051;29;20278;-67
2022/07/12 06:31:02;;;;;;;1.33;1.33;;;20.60;98.10;;;;;;6165444;29;20278;-67
2022/07/12 06:34:10;;;;;;;1.25;1.25;;;20.60;97.40;;;;;;6164372;28;20274;-66
2022/07/12 06:37:16;;;;;;;1.42;1.42;;;20.60;97.10;;;;;;6164983;29;20279;-67
2022/07/12 06:40:21;;;;;;;1.80;1.60;;;20.70;98.10;;;;;;6165029;29;20290;-66
2022/07/12 06:43:27;;;;;;;1.30;1.30;;;20.80;97.50;;;;;;6163957;28;20459;-66
2022/07/12 06:46:32;;;;;;;2.53;1.50;;;20.90;97.80;;;;;;6164727;29;20278;-66
2022/07/12 06:49:39;;;;;;;2.08;1.30;;;21.00;98.10;;;;;;6165026;29;20274;-67
2022/07/12 06:52:44;;;;;;;4.13;1.20;;;21.00;97.10;;;;;;6165146;28;20283;-67
2022/07/12 06:55:49;;;;;;;1.30;1.30;;;21.10;97.00;;;;;;6164608;28;20279;-67
2022/07/12 06:58:54;;;;;;;1.50;1.40;;;21.10;97.70;;;;;;6164743;29;20278;-67
2022/07/12 07:01:59;;;;;;;1.27;1.27;;;21.30;98.10;;;;;;6164504;29;20294;-67
2022/07/12 07:05:08;;;;;;;1.23;1.23;;;21.30;97.10;;;;;;6164741;29;20527;-67
2022/07/12 07:08:15;;;;;;;1.30;1.30;;;21.40;96.90;;;;;;6164484;28;20276;-67
2022/07/12 07:11:21;;;;;;;1.20;1.20;;;21.40;96.80;;;;;;6164489;28;20278;-66
2022/07/12 07:14:26;;;;;;;1.50;1.50;;;21.40;96.20;;;;;;6186947;28;20298;-66
2022/07/12 07:17:31;;;;;;;1.38;1.38;;;21.50;96.40;;;;;;6188168;28;20273;-67
2022/07/12 07:20:40;;;;;;;1.52;1.30;;;21.70;96.60;;;;;;6187780;28;20277;-67
2022/07/12 07:23:46;;;;;;;1.80;1.70;;;21.80;97.30;;;;;;6188118;28;20254;-67
2022/07/12 07:26:51;;;;;;;1.30;1.30;;;21.80;96.00;;;;;;6188048;28;20273;-67
2022/07/12 07:33:26;;;;;;;1.75;1.30;;;21.90;95.10;;;;;;6188085;28;20282;-67
2022/07/12 07:36:33;;;;;;;1.50;1.40;;;21.90;96.50;;;;;;6187867;28;20274;-66
2022/07/12 07:39:38;;;;;;;1.10;1.10;;;22.00;94.70;;;;;;6188046;28;20274;-66
2022/07/12 07:42:43;;;;;;;1.77;1.38;;;21.90;94.50;;;;;;6187243;28;20305;-66
2022/07/12 07:45:49;;;;;;;1.15;1.10;;;22.00;94.70;;;;;;6188081;28;20279;-67
2022/07/12 07:48:55;;;;;;;1.13;1.10;;;22.00;94.70;;;;;;6192659;28;20274;-68
2022/07/12 07:52:01;;;;;;;1.67;1.20;;;22.10;94.50;;;;;;6192809;28;20277;-67
2022/07/12 07:55:08;;;;;;;1.15;1.15;;;22.30;95.70;;;;;;6175678;28;20293;-67
2022/07/12 07:58:16;;;;;;;3.95;1.40;;;22.30;94.60;;;;;;6192618;28;20278;-67
2022/07/12 08:01:42;;;;;;;1.30;1.30;;;22.30;94.50;;;;;;6192344;28;20293;-67
2022/07/12 08:04:48;;;;;;;3.45;1.23;;;22.30;93.60;;;;;;6183602;28;20550;-68
2022/07/12 08:07:55;;;;;;;1.58;1.40;;;22.30;93.20;;;;;;6168254;29;20275;-68
2022/07/12 08:11:00;;;;;;;1.15;1.10;;;22.40;94.80;;;;;;6168520;28;20464;-68
2022/07/12 08:14:07;;;;;;;1.20;1.20;;;22.40;93.10;;;;;;6168616;28;20303;-67
2022/07/12 08:17:13;;;;;;;1.17;1.17;;;22.50;93.90;;;;;;6168043;29;20274;-68
2022/07/12 08:20:19;;;;;;;1.25;1.25;;;22.50;93.30;;;;;;6168145;29;20279;-68
2022/07/12 08:23:45;;;;;;;1.50;1.50;;;22.60;93.40;;;;;;6168085;29;20294;-68
2022/07/12 08:26:51;;;;;;;4.03;1.15;;;22.70;94.10;;;;;;6168011;29;20274;-67
2022/07/12 08:29:56;;;;;;;1.92;1.40;;;22.70;92.80;;;;;;6168283;28;20275;-68
2022/07/12 08:33:01;;;;;;;3.70;1.20;;;22.70;92.50;;;;;;6168163;29;20283;-68
2022/07/12 08:36:08;;;;;;;1.20;1.20;;;22.70;92.90;;;;;;6167652;29;20274;-68
2022/07/12 08:39:15;;;;;;;1.02;1.02;;;22.70;93.40;;;;;;6167545;29;20274;-68
2022/07/12 08:42:20;;;;;;;0.93;0.93;;;22.60;92.40;;;;;;6167384;29;20297;-68
2022/07/12 08:45:25;;;;;;;1.30;1.20;;;22.50;91.30;;;;;;6167392;29;20279;-68
2022/07/12 08:48:31;;;;;;;1.60;1.60;;;22.50;91.80;;;;;;6167499;28;20274;-68
2022/07/12 08:51:36;;;;;;;1.13;1.10;;;22.50;91.60;;;;;;6167427;28;20278;-68
2022/07/12 08:54:43;;;;;;;1.00;1.00;;;22.50;90.80;;;;;;6167584;29;20271;-68
2022/07/12 08:57:49;;;;;;;5.15;1.60;;;22.40;90.70;;;;;;6167267;28;20275;-68
2022/07/12 09:00:55;;;;;;;1.73;1.20;;;22.40;90.40;;;;;;6167478;29;20270;-68
2022/07/12 09:04:11;;;;;;;1.45;1.08;;;22.50;90.90;;;;;;6166093;29;20294;-68
2022/07/12 09:07:17;;;;;;;1.05;1.05;;;22.50;90.30;;;;;;6166906;29;20446;-68
2022/07/12 09:10:23;;;;;;;1.10;1.10;;;22.50;90.50;;;;;;6167151;28;20558;-68
2022/07/12 09:13:52;;;;;;;1.38;1.27;;;22.40;90.60;;;;;;6179831;28;20485;-68
2022/07/12 09:17:03;;;;;;;1.05;1.05;;;22.40;90.60;;;;;;6190955;28;20279;-68
2022/07/12 09:20:11;;;;;;;0.93;0.93;;;22.40;90.40;;;;;;6190597;28;20278;-68
2022/07/12 09:23:18;;;;;;;1.85;0.90;;;22.40;90.10;;;;;;6190511;28;20289;-68
2022/07/12 09:26:30;;;;;;;1.58;1.52;;;22.50;90.70;;;;;;6190584;28;20274;-68
2022/07/12 09:29:47;;;;;;;1.55;1.55;;;22.60;90.80;;;;;;6190700;28;20278;-68
2022/07/12 09:36:25;;;;;;;1.60;1.60;;;22.50;90.90;;;;;;6190154;28;20273;-67
2022/07/12 09:39:30;;;;;;;1.40;1.17;;;22.60;91.90;;;;;;6190337;28;20277;-67
2022/07/12 09:42:38;;;;;;;2.22;1.00;;;22.60;91.20;;;;;;6190160;28;20293;-67
2022/07/12 09:45:44;;;;;;;4.60;4.30;;;22.70;89.90;;;;;;6189867;28;20457;-67
2022/07/12 09:48:49;;;;;;;4.05;1.67;;;22.70;87.50;;;;;;6190421;28;20335;-67
2022/07/12 09:51:57;;;;;;;3.08;1.20;;;22.70;88.60;;;;;;6189753;28;20445;-67
2022/07/12 09:55:04;;;;;;;1.05;1.05;;;22.70;86.90;;;;;;6189709;28;20468;-68
2022/07/12 09:58:14;;;;;;;1.17;1.17;;;22.70;86.30;;;;;;6190085;28;20278;-68
2022/07/12 10:01:20;;;;;;;1.00;1.00;;;22.60;88.10;;;;;;6189850;28;20274;-68
2022/07/12 10:04:31;;;;;;;3.05;1.00;;;22.60;88.70;;;;;;6184160;28;20313;-68
2022/07/12 10:07:38;;;;;;;0.90;0.90;;;22.60;88.50;;;;;;6165461;29;20270;-68
2022/07/12 10:10:44;;;;;;;1.10;1.10;;;22.70;87.00;;;;;;6164563;28;20274;-68
2022/07/12 10:13:51;;;;;;;1.20;1.17;;;22.60;87.20;;;;;;6165487;29;20302;-68
2022/07/12 10:16:58;;;;;;;1.58;1.00;;;22.70;87.80;;;;;;6165939;28;20550;-67
2022/07/12 10:20:16;;;;;;;1.20;1.20;;;22.70;86.90;;;;;;6165055;29;20275;-68
2022/07/12 10:23:35;;;;;;;0.95;0.95;;;22.80;85.40;;;;;;6165410;28;20299;-67
2022/07/12 10:26:41;;;;;;;0.80;0.80;;;22.80;86.20;;;;;;6165608;28;20558;-68
2022/07/12 10:29:51;;;;;;;0.90;0.90;;;22.90;87.10;;;;;;6165070;29;20464;-68
2022/07/12 10:32:58;;;;;;;1.20;1.20;;;23.00;86.90;;;;;;6165231;29;20279;-68
2022/07/12 10:36:06;;;;;;;3.72;1.00;;;23.00;86.10;;;;;;6164755;29;20434;-67
2022/07/12 10:39:18;;;;;;;1.23;1.23;;;23.00;84.60;;;;;;6165030;29;20287;-68
2022/07/12 10:42:28;;;;;;;1.20;1.20;;;23.10;84.90;;;;;;6165117;29;20279;-68
2022/07/12 10:45:38;;;;;;;1.75;1.00;;;23.10;81.90;;;;;;6165083;28;20306;-67
2022/07/12 10:48:43;;;;;;;1.40;1.20;;;23.10;83.20;;;;;;6164982;29;20270;-67
2022/07/12 10:52:24;;;;;;;1.38;1.25;;;23.20;85.20;;;;;;6164840;29;20290;-67
2022/07/12 10:55:29;;;;;;;0.80;0.80;;;23.20;81.90;;;;;;6165000;28;20278;-67
2022/07/12 10:58:37;;;;;;;1.13;1.13;;;23.20;82.10;;;;;;6163578;28;20274;-67
2022/07/12 11:01:47;;;;;;;0.80;0.80;;;23.20;81.10;;;;;;6163430;29;20280;-67
2022/07/12 11:04:53;;;;;;;1.00;1.00;;;23.30;81.30;;;;;;6164344;29;20298;-67
2022/07/12 11:07:58;;;;;;;1.27;0.98;;;23.30;81.20;;;;;;6164760;28;20298;-67
2022/07/12 11:11:04;;;;;;;2.17;0.90;;;23.40;81.70;;;;;;6164338;29;20275;-68
2022/07/12 11:14:10;;;;;;;1.27;1.27;;;23.50;82.50;;;;;;6182737;28;20310;-67
2022/07/12 11:17:17;;;;;;;0.95;0.95;;;23.50;79.30;;;;;;6187863;28;20277;-67
2022/07/12 11:20:22;;;;;;;0.80;0.80;;;23.60;80.00;;;;;;6187653;28;20281;-67
2022/07/12 11:23:27;;;;;;;0.80;0.80;;;23.60;80.00;;;;;;6188110;28;20273;-67
2022/07/12 11:26:34;;;;;;;1.38;0.80;;;23.70;79.70;;;;;;6188336;28;20273;-67
2022/07/12 11:29:40;;;;;;;0.90;0.90;;;23.80;77.20;;;;;;6188371;28;20277;-67
2022/07/12 11:32:47;;;;;;;1.40;1.00;;;23.90;77.60;;;;;;6188281;28;20273;-67
2022/07/12 11:36:00;;;;;;;0.70;0.70;;;23.90;78.00;;;;;;6187555;28;20278;-68
2022/07/12 11:39:06;;;;;;;1.05;1.05;;;23.90;77.40;;;;;;6187656;28;20277;-68
2022/07/12 11:42:12;;;;;;;0.70;0.70;;;24.00;77.40;;;;;;6188347;28;20266;-68
2022/07/12 11:45:17;;;;;;;0.90;0.90;;;23.90;76.60;;;;;;6187577;28;20297;-68
2022/07/12 11:48:25;;;;;;;0.95;0.80;;;23.90;76.50;;;;;;6187927;28;20291;-68
2022/07/12 11:51:33;;;;;;;1.00;1.00;;;24.00;77.20;;;;;;6187590;28;20269;-67
2022/07/12 11:54:39;;;;;;;0.88;0.88;;;24.10;76.30;;;;;;6187621;28;20463;-68
2022/07/12 11:57:44;;;;;;;1.00;1.00;;;24.20;76.10;;;;;;6187438;28;20278;-68
2022/07/12 12:00:50;;;;;;;0.85;0.85;;;24.20;75.70;;;;;;6187574;28;20336;-68
2022/07/12 12:03:57;;;;;;;2.05;1.30;;;24.10;76.60;;;;;;6186017;28;20457;-67
2022/07/12 12:07:02;;;;;;;4.30;4.03;;;24.20;76.30;;;;;;6164518;28;20581;-67
2022/07/12 12:10:13;;;;;;;4.85;4.55;;;24.30;76.40;;;;;;6163864;29;20274;-67
2022/07/12 12:13:19;;;;;;;2.10;1.95;;;24.30;73.90;;;;;;6162285;29;20303;-67
2022/07/12 12:16:24;;;;;;;4.10;1.20;;;24.30;75.30;;;;;;6162876;28;20274;-67
2022/07/12 12:19:31;;;;;;;2.30;0.90;;;24.40;74.20;;;;;;6163448;29;20479;-68
2022/07/12 12:22:36;;;;;;;1.00;1.00;;;24.50;73.30;;;;;;6163766;28;20275;-68
2022/07/12 12:25:42;;;;;;;1.08;0.93;;;24.60;73.60;;;;;;6163275;29;20294;-68
2022/07/12 12:28:49;;;;;;;1.00;1.00;;;24.70;71.70;;;;;;6163818;29;20274;-68
2022/07/12 12:31:58;;;;;;;0.80;0.80;;;24.80;74.30;;;;;;6163780;28;20274;-68
2022/07/12 12:35:09;;;;;;;0.80;0.80;;;24.70;73.10;;;;;;6168212;28;20278;-68
2022/07/12 12:38:16;;;;;;;0.90;0.90;;;24.70;72.10;;;;;;6167860;28;20279;-68
2022/07/12 12:41:23;;;;;;;0.82;0.82;;;24.50;71.60;;;;;;6167871;29;20445;-68
2022/07/12 12:44:31;;;;;;;1.45;1.00;;;24.50;71.90;;;;;;6167905;29;20275;-68
2022/07/12 12:47:58;;;;;;;1.45;0.80;;;24.60;70.90;;;;;;6167497;29;20288;-68
2022/07/12 12:51:07;;;;;;;0.88;0.88;;;24.60;69.10;;;;;;6167407;29;20279;-68
2022/07/12 12:54:12;;;;;;;1.00;1.00;;;24.70;70.30;;;;;;6167333;29;20278;-68
2022/07/12 12:57:18;;;;;;;0.80;0.80;;;24.80;72.20;;;;;;6167729;28;20282;-68
2022/07/12 13:00:23;;;;;;;1.33;0.82;;;24.90;70.90;;;;;;6167213;28;20454;-68
2022/07/12 13:03:29;;;;;;;0.82;0.82;;;25.00;67.20;;;;;;6167021;29;20288;-67
2022/07/12 13:06:36;;;;;;;2.55;0.90;;;25.00;69.00;;;;;;6166733;29;20286;-67
2022/07/12 13:09:42;;;;;;;0.80;0.80;;;25.10;68.10;;;;;;6167134;28;20294;-67
2022/07/12 13:12:47;;;;;;;0.95;0.80;;;25.20;68.20;;;;;;6171763;28;20310;-67
2022/07/12 13:15:52;;;;;;;1.00;1.00;;;25.20;68.60;;;;;;6190434;28;20277;-67
2022/07/12 13:18:57;;;;;;;2.40;0.80;;;25.20;66.70;;;;;;6190264;28;20274;-67
2022/07/12 13:22:04;;;;;;;0.80;0.80;;;25.20;68.20;;;;;;6190308;28;20310;-67
2022/07/12 13:25:12;;;;;;;1.42;0.90;;;25.40;70.20;;;;;;6190569;28;20577;-67
2022/07/12 13:28:17;;;;;;;0.95;0.80;;;25.40;71.10;;;;;;6190168;28;20433;-66
2022/07/12 13:31:23;;;;;;;1.75;1.00;;;25.60;65.70;;;;;;6190631;28;20279;-67
2022/07/12 13:34:28;;;;;;;1.00;1.00;;;25.60;65.10;;;;;;6190638;28;20350;-67
2022/07/12 13:37:36;;;;;;;0.73;0.73;;;25.30;65.00;;;;;;6189921;28;20273;-67
2022/07/12 13:40:41;;;;;;;1.10;1.10;;;25.30;65.20;;;;;;6190369;28;20274;-67
2022/07/12 13:43:47;;;;;;;0.90;0.90;;;25.40;64.70;;;;;;6189036;28;20274;-68
2022/07/12 13:46:52;;;;;;;1.05;0.93;;;26.10;63.80;;;;;;6190193;28;20293;-67
2022/07/12 13:49:58;;;;;;;2.20;0.95;;;27.10;61.80;;;;;;6190210;28;20451;-67
2022/07/12 13:53:05;;;;;;;1.00;1.00;;;26.90;60.30;;;;;;6190280;28;20278;-67
2022/07/12 13:56:12;;;;;;;1.10;1.10;;;27.20;60.00;;;;;;6189824;28;20277;-67
2022/07/12 13:59:17;;;;;;;1.52;1.40;;;28.40;56.60;;;;;;6189715;28;20273;-68
2022/07/12 14:02:22;;;;;;;2.33;2.22;;;28.90;54.80;;;;;;6189972;28;20270;-68
2022/07/12 14:05:28;;;;;;;1.30;1.10;;;29.30;54.90;;;;;;6175486;28;20271;-67
2022/07/12 14:08:34;;;;;;;1.88;1.88;;;28.60;56.30;;;;;;6165858;29;20290;-68
2022/07/12 14:11:39;;;;;;;1.27;1.08;;;27.80;56.60;;;;;;6165553;28;20575;-68
2022/07/12 14:18:10;;;;;;;1.00;1.00;;;27.50;57.00;;;;;;6165867;28;20279;-68
2022/07/12 14:21:15;;;;;;;1.10;1.10;;;27.30;56.80;;;;;;6165113;29;20294;-68
2022/07/12 14:24:22;;;;;;;0.80;0.80;;;27.40;56.70;;;;;;6165140;28;20459;-68
2022/07/12 14:27:27;;;;;;;1.02;1.00;;;27.20;55.60;;;;;;6165132;29;20298;-67
2022/07/12 14:30:33;;;;;;;1.00;1.00;;;26.90;55.50;;;;;;6165129;28;20433;-68
2022/07/12 14:33:38;;;;;;;1.17;1.08;;;26.70;56.10;;;;;;6165244;29;20566;-68
2022/07/12 14:36:43;;;;;;;1.58;1.30;;;26.40;57.00;;;;;;6165165;29;20278;-67
2022/07/12 14:39:50;;;;;;;1.70;1.20;;;26.30;57.50;;;;;;6165037;28;20274;-68
2022/07/12 14:42:56;;;;;;;1.65;0.98;;;26.20;56.80;;;;;;6164850;29;20274;-68
2022/07/12 14:46:02;;;;;;;1.08;0.98;;;26.20;57.40;;;;;;6164414;29;20274;-67
2022/07/12 14:49:07;;;;;;;1.00;1.00;;;26.00;57.90;;;;;;6164369;29;20290;-68
2022/07/12 14:52:12;;;;;;;1.00;1.00;;;26.00;57.70;;;;;;6164144;29;20278;-68
2022/07/12 14:55:19;;;;;;;0.98;0.98;;;26.30;57.50;;;;;;6164311;28;20273;-67
2022/07/12 14:58:24;;;;;;;1.10;1.10;;;27.00;56.90;;;;;;6164491;28;20278;-68
2022/07/12 15:01:30;;;;;;;1.48;1.00;;;26.80;57.30;;;;;;6164402;29;20275;-68
2022/07/12 15:04:36;;;;;;;0.70;0.70;;;26.80;56.80;;;;;;6164106;28;20266;-68
2022/07/12 15:07:41;;;;;;;0.90;0.90;;;26.80;56.60;;;;;;6163744;29;20294;-68
2022/07/12 15:10:48;;;;;;;0.90;0.90;;;26.90;56.30;;;;;;6164222;28;20274;-67
2022/07/12 15:13:53;;;;;;;1.45;1.02;;;26.90;58.30;;;;;;6177553;28;20306;-68
2022/07/12 15:16:58;;;;;;;1.17;1.17;;;27.00;56.80;;;;;;6187905;28;20278;-68
2022/07/12 15:20:04;;;;;;;1.30;1.30;;;27.00;56.00;;;;;;6187668;28;20580;-68
2022/07/12 15:23:11;;;;;;;1.10;1.10;;;26.90;56.50;;;;;;6188030;28;20299;-68
2022/07/12 15:26:17;;;;;;;1.45;1.00;;;27.20;56.70;;;;;;6187730;28;20576;-68
2022/07/12 15:29:23;;;;;;;2.95;1.38;;;27.60;55.10;;;;;;6187818;28;20600;-68
2022/07/12 15:32:28;;;;;;;0.95;0.95;;;28.70;53.10;;;;;;6188043;28;20273;-68
2022/07/12 15:35:33;;;;;;;1.98;1.30;;;29.10;51.40;;;;;;6187966;28;20278;-67
2022/07/12 15:38:39;;;;;;;1.00;1.00;;;28.90;52.00;;;;;;6187962;28;20282;-68
2022/07/12 15:41:50;;;;;;;1.45;1.45;;;28.40;53.70;;;;;;6187546;28;20557;-68
2022/07/12 15:44:55;;;;;;;1.70;1.70;;;28.00;54.10;;;;;;6187840;28;20270;-68
2022/07/12 15:48:00;;;;;;;1.20;1.20;;;27.80;54.30;;;;;;6187829;28;20289;-68
2022/07/12 15:51:06;;;;;;;1.73;1.10;;;27.50;51.20;;;;;;6187802;28;20273;-68
2022/07/12 15:54:10;;;;;;;4.55;1.40;;;27.30;51.20;;;;;;6188070;28;20278;-68
2022/07/12 15:57:17;;;;;;;1.52;1.48;;;27.30;51.20;;;;;;6187717;28;20276;-68
2022/07/12 16:00:23;;;;;;;1.48;1.10;;;27.20;51.70;;;;;;6187510;28;20479;-68
2022/07/12 16:03:29;;;;;;;1.65;0.98;;;27.20;51.20;;;;;;6187051;28;20554;-68
2022/07/12 16:06:35;;;;;;;1.05;1.02;;;27.00;50.50;;;;;;6165236;28;20268;-68
2022/07/12 16:09:40;;;;;;;2.00;2.00;;;27.00;50.80;;;;;;6168283;28;20294;-68
2022/07/12 16:12:47;;;;;;;1.23;1.15;;;27.00;49.80;;;;;;6168644;28;20333;-68
2022/07/12 16:15:52;;;;;;;0.90;0.90;;;26.90;50.20;;;;;;6168418;29;20275;-68
2022/07/12 16:18:58;;;;;;;1.85;1.25;;;26.90;50.10;;;;;;6168464;28;20298;-68